sensor_id;sensor_type;location;lat;lon;timestamp;P1;durP1;ratioP1;P2;durP2;ratioP2
9948;SDS011;5013;51.840;8.276;2022-08-26T00:02:02;11.53;;;10.17;;
9948;SDS011;5013;51.840;8.276;2022-08-26T00:04:28;12.00;;;10.40;;
9948;SDS011;5013;51.840;8.276;2022-08-26T00:06:56;12.10;;;10.07;;
9948;SDS011;5013;51.840;8.276;2022-08-26T00:09:22;11.67;;;10.50;;
9948;SDS011;5013;51.840;8.276;2022-08-26T00:11:49;14.20;;;10.37;;
9948;SDS011;5013;51.840;8.276;2022-08-26T00:14:15;11.70;;;9.73;;
9948;SDS011;5013;51.840;8.276;2022-08-26T00:16:41;11.27;;;10.17;;
9948;SDS011;5013;51.840;8.276;2022-08-26T00:19:07;10.67;;;9.63;;
9948;SDS011;5013;51.840;8.276;2022-08-26T00:21:33;14.73;;;10.80;;
9948;SDS011;5013;51.840;8.276;2022-08-26T00:23:59;11.13;;;10.23;;
9948;SDS011;5013;51.840;8.276;2022-08-26T00:26:25;14.30;;;10.10;;
9948;SDS011;5013;51.840;8.276;2022-08-26T00:28:50;13.90;;;10.50;;
9948;SDS011;5013;51.840;8.276;2022-08-26T00:31:16;13.10;;;11.77;;
9948;SDS011;5013;51.840;8.276;2022-08-26T00:33:42;15.30;;;11.57;;
9948;SDS011;5013;51.840;8.276;2022-08-26T00:36:08;12.80;;;11.43;;
9948;SDS011;5013;51.840;8.276;2022-08-26T00:38:34;12.40;;;10.03;;
9948;SDS011;5013;51.840;8.276;2022-08-26T00:41:00;13.00;;;11.83;;
9948;SDS011;5013;51.840;8.276;2022-08-26T00:43:28;12.17;;;10.97;;
9948;SDS011;5013;51.840;8.276;2022-08-26T00:45:58;12.47;;;11.23;;
9948;SDS011;5013;51.840;8.276;2022-08-26T00:48:30;13.03;;;11.73;;
9948;SDS011;5013;51.840;8.276;2022-08-26T00:51:14;13.43;;;12.13;;
9948;SDS011;5013;51.840;8.276;2022-08-26T00:53:47;13.30;;;11.40;;
9948;SDS011;5013;51.840;8.276;2022-08-26T00:56:22;16.43;;;11.70;;
9948;SDS011;5013;51.840;8.276;2022-08-26T00:59:05;12.20;;;10.97;;
9948;SDS011;5013;51.840;8.276;2022-08-26T01:01:35;12.83;;;11.60;;
9948;SDS011;5013;51.840;8.276;2022-08-26T01:04:02;12.73;;;11.50;;
9948;SDS011;5013;51.840;8.276;2022-08-26T01:06:28;12.57;;;11.37;;
9948;SDS011;5013;51.840;8.276;2022-08-26T01:08:55;12.23;;;10.73;;
9948;SDS011;5013;51.840;8.276;2022-08-26T01:11:21;15.33;;;11.40;;
9948;SDS011;5013;51.840;8.276;2022-08-26T01:13:50;13.33;;;11.93;;
9948;SDS011;5013;51.840;8.276;2022-08-26T01:16:18;13.90;;;12.47;;
9948;SDS011;5013;51.840;8.276;2022-08-26T01:18:44;13.07;;;11.60;;
9948;SDS011;5013;51.840;8.276;2022-08-26T01:21:25;14.27;;;11.43;;
9948;SDS011;5013;51.840;8.276;2022-08-26T01:23:55;12.93;;;11.40;;
9948;SDS011;5013;51.840;8.276;2022-08-26T01:26:29;13.13;;;11.73;;
9948;SDS011;5013;51.840;8.276;2022-08-26T01:28:59;15.50;;;11.40;;
9948;SDS011;5013;51.840;8.276;2022-08-26T01:31:28;18.47;;;12.93;;
9948;SDS011;5013;51.840;8.276;2022-08-26T01:34:02;16.83;;;10.90;;
9948;SDS011;5013;51.840;8.276;2022-08-26T01:36:35;13.03;;;10.97;;
9948;SDS011;5013;51.840;8.276;2022-08-26T01:39:02;15.17;;;11.60;;
9948;SDS011;5013;51.840;8.276;2022-08-26T01:41:29;14.67;;;12.63;;
9948;SDS011;5013;51.840;8.276;2022-08-26T01:43:56;14.00;;;12.50;;
9948;SDS011;5013;51.840;8.276;2022-08-26T01:46:23;15.13;;;13.17;;
9948;SDS011;5013;51.840;8.276;2022-08-26T01:48:53;14.60;;;13.10;;
9948;SDS011;5013;51.840;8.276;2022-08-26T01:51:22;15.10;;;12.97;;
9948;SDS011;5013;51.840;8.276;2022-08-26T01:53:50;15.37;;;13.73;;
9948;SDS011;5013;51.840;8.276;2022-08-26T01:56:16;15.07;;;13.53;;
9948;SDS011;5013;51.840;8.276;2022-08-26T01:58:46;15.17;;;13.63;;
9948;SDS011;5013;51.840;8.276;2022-08-26T02:01:15;14.30;;;12.80;;
9948;SDS011;5013;51.840;8.276;2022-08-26T02:03:45;15.77;;;14.10;;
9948;SDS011;5013;51.840;8.276;2022-08-26T02:06:31;14.00;;;12.70;;
9948;SDS011;5013;51.840;8.276;2022-08-26T02:08:59;14.87;;;13.30;;
9948;SDS011;5013;51.840;8.276;2022-08-26T02:11:26;14.67;;;13.20;;
9948;SDS011;5013;51.840;8.276;2022-08-26T02:14:11;15.77;;;12.63;;
9948;SDS011;5013;51.840;8.276;2022-08-26T02:16:40;13.93;;;12.53;;
9948;SDS011;5013;51.840;8.276;2022-08-26T02:19:10;13.80;;;12.50;;
9948;SDS011;5013;51.840;8.276;2022-08-26T02:21:42;16.13;;;14.20;;
9948;SDS011;5013;51.840;8.276;2022-08-26T02:24:13;15.40;;;13.70;;
9948;SDS011;5013;51.840;8.276;2022-08-26T02:26:42;15.77;;;13.30;;
9948;SDS011;5013;51.840;8.276;2022-08-26T02:29:12;13.03;;;11.80;;
9948;SDS011;5013;51.840;8.276;2022-08-26T02:31:44;15.50;;;14.00;;
9948;SDS011;5013;51.840;8.276;2022-08-26T02:34:13;14.30;;;12.80;;
9948;SDS011;5013;51.840;8.276;2022-08-26T02:36:40;16.53;;;13.23;;
9948;SDS011;5013;51.840;8.276;2022-08-26T02:39:07;16.97;;;14.57;;
9948;SDS011;5013;51.840;8.276;2022-08-26T02:41:33;16.90;;;13.50;;
9948;SDS011;5013;51.840;8.276;2022-08-26T02:43:59;13.30;;;12.00;;
9948;SDS011;5013;51.840;8.276;2022-08-26T02:46:25;15.90;;;14.20;;
9948;SDS011;5013;51.840;8.276;2022-08-26T02:48:50;16.13;;;13.33;;
9948;SDS011;5013;51.840;8.276;2022-08-26T02:51:16;15.40;;;13.90;;
9948;SDS011;5013;51.840;8.276;2022-08-26T02:53:42;16.73;;;13.00;;
9948;SDS011;5013;51.840;8.276;2022-08-26T02:56:08;17.80;;;13.57;;
9948;SDS011;5013;51.840;8.276;2022-08-26T02:58:34;15.23;;;11.50;;
9948;SDS011;5013;51.840;8.276;2022-08-26T03:01:00;14.40;;;12.10;;
9948;SDS011;5013;51.840;8.276;2022-08-26T03:03:26;13.13;;;11.93;;
9948;SDS011;5013;51.840;8.276;2022-08-26T03:05:52;21.40;;;14.57;;
9948;SDS011;5013;51.840;8.276;2022-08-26T03:08:18;16.63;;;14.93;;
9948;SDS011;5013;51.840;8.276;2022-08-26T03:10:45;17.73;;;12.87;;
9948;SDS011;5013;51.840;8.276;2022-08-26T03:13:11;16.40;;;14.43;;
9948;SDS011;5013;51.840;8.276;2022-08-26T03:15:37;15.73;;;12.90;;
9948;SDS011;5013;51.840;8.276;2022-08-26T03:18:04;15.13;;;13.30;;
9948;SDS011;5013;51.840;8.276;2022-08-26T03:20:30;16.27;;;13.17;;
9948;SDS011;5013;51.840;8.276;2022-08-26T03:22:56;17.23;;;12.97;;
9948;SDS011;5013;51.840;8.276;2022-08-26T03:25:22;14.37;;;13.07;;
9948;SDS011;5013;51.840;8.276;2022-08-26T03:27:49;15.13;;;13.73;;
9948;SDS011;5013;51.840;8.276;2022-08-26T03:30:15;17.50;;;13.50;;
9948;SDS011;5013;51.840;8.276;2022-08-26T03:32:59;19.10;;;14.63;;
9948;SDS011;5013;51.840;8.276;2022-08-26T03:35:25;14.33;;;13.03;;
9948;SDS011;5013;51.840;8.276;2022-08-26T03:37:51;17.00;;;15.30;;
9948;SDS011;5013;51.840;8.276;2022-08-26T03:40:17;15.70;;;13.23;;
9948;SDS011;5013;51.840;8.276;2022-08-26T03:42:44;15.30;;;12.63;;
9948;SDS011;5013;51.840;8.276;2022-08-26T03:45:10;19.43;;;15.90;;
9948;SDS011;5013;51.840;8.276;2022-08-26T03:47:37;18.93;;;15.07;;
9948;SDS011;5013;51.840;8.276;2022-08-26T03:50:05;16.37;;;13.30;;
9948;SDS011;5013;51.840;8.276;2022-08-26T03:52:32;15.03;;;13.07;;
9948;SDS011;5013;51.840;8.276;2022-08-26T03:54:57;15.30;;;13.73;;
9948;SDS011;5013;51.840;8.276;2022-08-26T03:57:23;20.37;;;14.20;;
9948;SDS011;5013;51.840;8.276;2022-08-26T03:59:49;15.67;;;13.47;;
9948;SDS011;5013;51.840;8.276;2022-08-26T04:02:15;15.20;;;13.60;;
9948;SDS011;5013;51.840;8.276;2022-08-26T04:04:41;16.20;;;14.10;;
9948;SDS011;5013;51.840;8.276;2022-08-26T04:07:07;14.70;;;12.67;;
9948;SDS011;5013;51.840;8.276;2022-08-26T04:09:33;15.73;;;14.20;;
9948;SDS011;5013;51.840;8.276;2022-08-26T04:11:58;21.27;;;14.67;;
9948;SDS011;5013;51.840;8.276;2022-08-26T04:14:25;14.80;;;13.27;;
9948;SDS011;5013;51.840;8.276;2022-08-26T04:16:52;14.70;;;13.10;;
9948;SDS011;5013;51.840;8.276;2022-08-26T04:19:19;15.40;;;13.90;;
9948;SDS011;5013;51.840;8.276;2022-08-26T04:21:45;15.60;;;12.87;;
9948;SDS011;5013;51.840;8.276;2022-08-26T04:24:13;14.77;;;12.77;;
9948;SDS011;5013;51.840;8.276;2022-08-26T04:26:40;16.13;;;13.20;;
9948;SDS011;5013;51.840;8.276;2022-08-26T04:29:08;14.20;;;12.80;;
9948;SDS011;5013;51.840;8.276;2022-08-26T04:31:36;15.20;;;13.60;;
9948;SDS011;5013;51.840;8.276;2022-08-26T04:34:02;14.73;;;12.70;;
9948;SDS011;5013;51.840;8.276;2022-08-26T04:36:28;14.37;;;12.87;;
9948;SDS011;5013;51.840;8.276;2022-08-26T04:38:54;16.57;;;14.00;;
9948;SDS011;5013;51.840;8.276;2022-08-26T04:41:21;18.57;;;14.57;;
9948;SDS011;5013;51.840;8.276;2022-08-26T04:43:47;16.27;;;12.77;;
9948;SDS011;5013;51.840;8.276;2022-08-26T04:46:15;15.90;;;13.80;;
9948;SDS011;5013;51.840;8.276;2022-08-26T04:48:43;15.23;;;13.50;;
9948;SDS011;5013;51.840;8.276;2022-08-26T04:51:09;15.07;;;13.53;;
9948;SDS011;5013;51.840;8.276;2022-08-26T04:53:36;13.87;;;12.23;;
9948;SDS011;5013;51.840;8.276;2022-08-26T04:56:01;16.43;;;13.50;;
9948;SDS011;5013;51.840;8.276;2022-08-26T04:58:28;16.00;;;12.73;;
9948;SDS011;5013;51.840;8.276;2022-08-26T05:00:54;15.03;;;13.60;;
9948;SDS011;5013;51.840;8.276;2022-08-26T05:03:21;15.93;;;13.83;;
9948;SDS011;5013;51.840;8.276;2022-08-26T05:05:48;15.63;;;12.73;;
9948;SDS011;5013;51.840;8.276;2022-08-26T05:08:14;15.13;;;13.53;;
9948;SDS011;5013;51.840;8.276;2022-08-26T05:10:47;15.13;;;13.67;;
9948;SDS011;5013;51.840;8.276;2022-08-26T05:13:15;16.57;;;14.13;;
9948;SDS011;5013;51.840;8.276;2022-08-26T05:15:43;18.20;;;14.20;;
9948;SDS011;5013;51.840;8.276;2022-08-26T05:18:10;20.00;;;13.90;;
9948;SDS011;5013;51.840;8.276;2022-08-26T05:20:42;22.40;;;15.63;;
9948;SDS011;5013;51.840;8.276;2022-08-26T05:23:09;21.00;;;14.33;;
9948;SDS011;5013;51.840;8.276;2022-08-26T05:25:36;16.67;;;14.83;;
9948;SDS011;5013;51.840;8.276;2022-08-26T05:28:04;16.50;;;13.87;;
9948;SDS011;5013;51.840;8.276;2022-08-26T05:30:30;16.30;;;14.70;;
9948;SDS011;5013;51.840;8.276;2022-08-26T05:32:55;15.27;;;13.07;;
9948;SDS011;5013;51.840;8.276;2022-08-26T05:35:21;21.73;;;13.77;;
9948;SDS011;5013;51.840;8.276;2022-08-26T05:37:47;15.23;;;13.63;;
9948;SDS011;5013;51.840;8.276;2022-08-26T05:40:13;18.57;;;13.80;;
9948;SDS011;5013;51.840;8.276;2022-08-26T05:42:39;16.20;;;14.50;;
9948;SDS011;5013;51.840;8.276;2022-08-26T05:45:05;16.77;;;14.63;;
9948;SDS011;5013;51.840;8.276;2022-08-26T05:47:32;16.33;;;13.87;;
9948;SDS011;5013;51.840;8.276;2022-08-26T05:49:58;17.17;;;13.40;;
9948;SDS011;5013;51.840;8.276;2022-08-26T05:52:24;16.03;;;14.37;;
9948;SDS011;5013;51.840;8.276;2022-08-26T05:54:50;18.17;;;16.07;;
9948;SDS011;5013;51.840;8.276;2022-08-26T05:57:16;17.23;;;14.13;;
9948;SDS011;5013;51.840;8.276;2022-08-26T05:59:42;21.40;;;14.57;;
9948;SDS011;5013;51.840;8.276;2022-08-26T06:02:07;15.47;;;13.87;;
9948;SDS011;5013;51.840;8.276;2022-08-26T06:04:34;13.70;;;12.40;;
9948;SDS011;5013;51.840;8.276;2022-08-26T06:06:59;15.70;;;12.83;;
9948;SDS011;5013;51.840;8.276;2022-08-26T06:09:25;21.37;;;13.93;;
9948;SDS011;5013;51.840;8.276;2022-08-26T06:11:52;16.10;;;11.67;;
9948;SDS011;5013;51.840;8.276;2022-08-26T06:17:40;18.77;;;13.47;;
9948;SDS011;5013;51.840;8.276;2022-08-26T06:20:05;14.97;;;13.60;;
9948;SDS011;5013;51.840;8.276;2022-08-26T06:22:32;22.03;;;14.00;;
9948;SDS011;5013;51.840;8.276;2022-08-26T06:25:16;14.87;;;13.37;;
9948;SDS011;5013;51.840;8.276;2022-08-26T06:28:00;22.27;;;16.40;;
9948;SDS011;5013;51.840;8.276;2022-08-26T06:30:26;17.50;;;15.30;;
9948;SDS011;5013;51.840;8.276;2022-08-26T06:32:51;18.37;;;15.43;;
9948;SDS011;5013;51.840;8.276;2022-08-26T06:35:17;22.80;;;17.20;;
9948;SDS011;5013;51.840;8.276;2022-08-26T06:37:43;18.10;;;15.27;;
9948;SDS011;5013;51.840;8.276;2022-08-26T06:40:08;20.40;;;18.20;;
9948;SDS011;5013;51.840;8.276;2022-08-26T06:42:34;25.10;;;18.90;;
9948;SDS011;5013;51.840;8.276;2022-08-26T06:45:02;25.13;;;18.70;;
9948;SDS011;5013;51.840;8.276;2022-08-26T06:47:28;24.33;;;20.57;;
9948;SDS011;5013;51.840;8.276;2022-08-26T06:49:54;27.23;;;20.73;;
9948;SDS011;5013;51.840;8.276;2022-08-26T06:52:20;22.37;;;20.20;;
9948;SDS011;5013;51.840;8.276;2022-08-26T06:54:48;28.30;;;21.93;;
9948;SDS011;5013;51.840;8.276;2022-08-26T06:57:15;27.40;;;20.50;;
9948;SDS011;5013;51.840;8.276;2022-08-26T06:59:41;28.73;;;20.87;;
9948;SDS011;5013;51.840;8.276;2022-08-26T07:02:07;23.53;;;21.13;;
9948;SDS011;5013;51.840;8.276;2022-08-26T07:04:33;30.07;;;23.17;;
9948;SDS011;5013;51.840;8.276;2022-08-26T07:06:59;24.93;;;22.30;;
9948;SDS011;5013;51.840;8.276;2022-08-26T07:09:27;22.40;;;20.23;;
9948;SDS011;5013;51.840;8.276;2022-08-26T07:11:56;25.87;;;22.10;;
9948;SDS011;5013;51.840;8.276;2022-08-26T07:14:22;22.97;;;19.80;;
9948;SDS011;5013;51.840;8.276;2022-08-26T07:16:49;22.50;;;19.23;;
9948;SDS011;5013;51.840;8.276;2022-08-26T07:19:15;26.40;;;23.77;;
9948;SDS011;5013;51.840;8.276;2022-08-26T07:21:42;26.03;;;22.87;;
9948;SDS011;5013;51.840;8.276;2022-08-26T07:24:08;25.10;;;22.63;;
9948;SDS011;5013;51.840;8.276;2022-08-26T07:26:35;28.47;;;24.70;;
9948;SDS011;5013;51.840;8.276;2022-08-26T07:29:01;28.67;;;25.67;;
9948;SDS011;5013;51.840;8.276;2022-08-26T07:31:27;30.33;;;27.13;;
9948;SDS011;5013;51.840;8.276;2022-08-26T07:33:55;34.33;;;26.40;;
9948;SDS011;5013;51.840;8.276;2022-08-26T07:36:21;33.07;;;29.73;;
9948;SDS011;5013;51.840;8.276;2022-08-26T07:38:49;32.07;;;27.63;;
9948;SDS011;5013;51.840;8.276;2022-08-26T07:41:16;28.97;;;25.17;;
9948;SDS011;5013;51.840;8.276;2022-08-26T07:43:44;35.97;;;29.13;;
9948;SDS011;5013;51.840;8.276;2022-08-26T07:46:10;28.87;;;25.90;;
9948;SDS011;5013;51.840;8.276;2022-08-26T07:48:42;37.47;;;28.67;;
9948;SDS011;5013;51.840;8.276;2022-08-26T07:51:08;35.33;;;30.50;;
9948;SDS011;5013;51.840;8.276;2022-08-26T07:53:34;31.70;;;27.53;;
9948;SDS011;5013;51.840;8.276;2022-08-26T07:56:01;38.47;;;34.30;;
9948;SDS011;5013;51.840;8.276;2022-08-26T07:58:27;38.17;;;34.37;;
9948;SDS011;5013;51.840;8.276;2022-08-26T08:00:53;34.53;;;30.83;;
9948;SDS011;5013;51.840;8.276;2022-08-26T08:03:19;38.77;;;34.63;;
9948;SDS011;5013;51.840;8.276;2022-08-26T08:05:45;42.67;;;36.77;;
9948;SDS011;5013;51.840;8.276;2022-08-26T08:08:11;39.70;;;35.43;;
9948;SDS011;5013;51.840;8.276;2022-08-26T08:10:37;39.57;;;35.77;;
9948;SDS011;5013;51.840;8.276;2022-08-26T08:13:04;38.23;;;34.37;;
9948;SDS011;5013;51.840;8.276;2022-08-26T08:15:32;41.17;;;36.95;;
9948;SDS011;5013;51.840;8.276;2022-08-26T08:17:59;43.10;;;38.85;;
9948;SDS011;5013;51.840;8.276;2022-08-26T08:20:25;48.20;;;43.03;;
9948;SDS011;5013;51.840;8.276;2022-08-26T08:22:51;42.80;;;37.27;;
9948;SDS011;5013;51.840;8.276;2022-08-26T08:25:18;39.30;;;35.17;;
9948;SDS011;5013;51.840;8.276;2022-08-26T08:27:45;50.63;;;44.80;;
9948;SDS011;5013;51.840;8.276;2022-08-26T08:30:30;44.92;;;37.97;;
9948;SDS011;5013;51.840;8.276;2022-08-26T08:32:56;47.83;;;42.77;;
9948;SDS011;5013;51.840;8.276;2022-08-26T08:35:22;42.85;;;38.30;;
9948;SDS011;5013;51.840;8.276;2022-08-26T08:37:50;44.65;;;39.80;;
9948;SDS011;5013;51.840;8.276;2022-08-26T08:40:18;40.53;;;36.47;;
9948;SDS011;5013;51.840;8.276;2022-08-26T08:42:55;48.17;;;43.13;;
9948;SDS011;5013;51.840;8.276;2022-08-26T08:45:34;50.28;;;43.28;;
9948;SDS011;5013;51.840;8.276;2022-08-26T08:50:51;53.60;;;46.22;;
9948;SDS011;5013;51.840;8.276;2022-08-26T08:53:21;54.70;;;48.45;;
9948;SDS011;5013;51.840;8.276;2022-08-26T08:56:00;50.03;;;44.75;;
9948;SDS011;5013;51.840;8.276;2022-08-26T08:58:50;50.65;;;45.35;;
9948;SDS011;5013;51.840;8.276;2022-08-26T09:01:41;45.85;;;39.45;;
9948;SDS011;5013;51.840;8.276;2022-08-26T09:04:12;42.05;;;36.00;;
9948;SDS011;5013;51.840;8.276;2022-08-26T09:07:02;52.33;;;41.50;;
9948;SDS011;5013;51.840;8.276;2022-08-26T09:09:54;49.17;;;41.05;;
9948;SDS011;5013;51.840;8.276;2022-08-26T09:12:22;48.47;;;35.92;;
9948;SDS011;5013;51.840;8.276;2022-08-26T09:14:51;51.03;;;40.28;;
9948;SDS011;5013;51.840;8.276;2022-08-26T09:20:03;49.03;;;38.78;;
9948;SDS011;5013;51.840;8.276;2022-08-26T09:22:37;45.70;;;37.42;;
9948;SDS011;5013;51.840;8.276;2022-08-26T09:25:04;48.40;;;38.97;;
9948;SDS011;5013;51.840;8.276;2022-08-26T09:27:43;49.42;;;37.00;;
9948;SDS011;5013;51.840;8.276;2022-08-26T09:30:18;43.08;;;36.28;;
9948;SDS011;5013;51.840;8.276;2022-08-26T09:35:34;44.47;;;36.28;;
9948;SDS011;5013;51.840;8.276;2022-08-26T09:38:05;41.40;;;36.92;;
9948;SDS011;5013;51.840;8.276;2022-08-26T09:40:56;45.15;;;33.08;;
9948;SDS011;5013;51.840;8.276;2022-08-26T09:43:24;50.72;;;40.55;;
9948;SDS011;5013;51.840;8.276;2022-08-26T09:45:50;42.80;;;34.95;;
9948;SDS011;5013;51.840;8.276;2022-08-26T09:48:27;48.03;;;39.63;;
9948;SDS011;5013;51.840;8.276;2022-08-26T09:50:59;42.70;;;34.80;;
9948;SDS011;5013;51.840;8.276;2022-08-26T09:53:28;50.85;;;37.97;;
9948;SDS011;5013;51.840;8.276;2022-08-26T09:56:20;49.65;;;37.90;;
9948;SDS011;5013;51.840;8.276;2022-08-26T09:58:48;54.10;;;38.50;;
9948;SDS011;5013;51.840;8.276;2022-08-26T10:04:06;55.50;;;40.08;;
9948;SDS011;5013;51.840;8.276;2022-08-26T10:06:37;50.78;;;39.35;;
9948;SDS011;5013;51.840;8.276;2022-08-26T10:09:27;54.35;;;40.83;;
9948;SDS011;5013;51.840;8.276;2022-08-26T10:11:58;49.45;;;35.90;;
9948;SDS011;5013;51.840;8.276;2022-08-26T10:14:36;96.88;;;34.78;;
9948;SDS011;5013;51.840;8.276;2022-08-26T10:17:10;50.05;;;37.85;;
9948;SDS011;5013;51.840;8.276;2022-08-26T10:19:44;41.75;;;34.30;;
9948;SDS011;5013;51.840;8.276;2022-08-26T10:22:24;48.45;;;36.05;;
9948;SDS011;5013;51.840;8.276;2022-08-26T10:25:06;49.42;;;38.45;;
9948;SDS011;5013;51.840;8.276;2022-08-26T10:30:32;47.53;;;38.67;;
9948;SDS011;5013;51.840;8.276;2022-08-26T10:33:08;48.67;;;36.83;;
9948;SDS011;5013;51.840;8.276;2022-08-26T10:35:37;47.17;;;35.33;;
9948;SDS011;5013;51.840;8.276;2022-08-26T10:38:13;38.72;;;30.88;;
9948;SDS011;5013;51.840;8.276;2022-08-26T10:40:54;40.97;;;33.42;;
9948;SDS011;5013;51.840;8.276;2022-08-26T10:43:28;36.88;;;29.45;;
9948;SDS011;5013;51.840;8.276;2022-08-26T10:46:00;43.33;;;36.38;;
9948;SDS011;5013;51.840;8.276;2022-08-26T10:48:34;48.03;;;36.00;;
9948;SDS011;5013;51.840;8.276;2022-08-26T10:51:26;45.83;;;36.60;;
9948;SDS011;5013;51.840;8.276;2022-08-26T10:56:50;46.85;;;35.30;;
9948;SDS011;5013;51.840;8.276;2022-08-26T10:59:50;44.60;;;35.92;;
9948;SDS011;5013;51.840;8.276;2022-08-26T11:05:14;50.10;;;37.47;;
9948;SDS011;5013;51.840;8.276;2022-08-26T11:07:50;41.75;;;36.58;;
9948;SDS011;5013;51.840;8.276;2022-08-26T11:12:56;47.85;;;37.00;;
9948;SDS011;5013;51.840;8.276;2022-08-26T11:17:58;34.67;;;27.42;;
9948;SDS011;5013;51.840;8.276;2022-08-26T11:23:47;38.13;;;33.65;;
9948;SDS011;5013;51.840;8.276;2022-08-26T11:41:42;35.83;;;31.00;;
9948;SDS011;5013;51.840;8.276;2022-08-26T11:44:09;36.55;;;30.92;;
9948;SDS011;5013;51.840;8.276;2022-08-26T11:46:39;44.53;;;33.42;;
9948;SDS011;5013;51.840;8.276;2022-08-26T11:49:06;38.08;;;32.42;;
9948;SDS011;5013;51.840;8.276;2022-08-26T11:51:32;36.70;;;33.03;;
9948;SDS011;5013;51.840;8.276;2022-08-26T11:54:10;35.28;;;31.10;;
9948;SDS011;5013;51.840;8.276;2022-08-26T11:56:41;40.72;;;33.88;;
9948;SDS011;5013;51.840;8.276;2022-08-26T11:59:11;36.38;;;29.17;;
9948;SDS011;5013;51.840;8.276;2022-08-26T12:01:41;38.28;;;29.67;;
9948;SDS011;5013;51.840;8.276;2022-08-26T12:04:11;36.78;;;32.38;;
9948;SDS011;5013;51.840;8.276;2022-08-26T12:06:50;36.92;;;28.67;;
9948;SDS011;5013;51.840;8.276;2022-08-26T12:09:20;34.70;;;30.90;;
9948;SDS011;5013;51.840;8.276;2022-08-26T12:11:50;39.55;;;31.88;;
9948;SDS011;5013;51.840;8.276;2022-08-26T12:14:22;32.20;;;28.95;;
9948;SDS011;5013;51.840;8.276;2022-08-26T12:16:49;38.15;;;33.08;;
9948;SDS011;5013;51.840;8.276;2022-08-26T12:24:31;38.15;;;32.20;;
9948;SDS011;5013;51.840;8.276;2022-08-26T12:27:40;36.28;;;32.42;;
9948;SDS011;5013;51.840;8.276;2022-08-26T12:30:06;32.85;;;29.35;;
9948;SDS011;5013;51.840;8.276;2022-08-26T12:32:42;37.75;;;31.25;;
9948;SDS011;5013;51.840;8.276;2022-08-26T12:35:11;37.03;;;33.03;;
9948;SDS011;5013;51.840;8.276;2022-08-26T12:37:42;34.03;;;29.50;;
9948;SDS011;5013;51.840;8.276;2022-08-26T12:43:41;28.80;;;24.92;;
9948;SDS011;5013;51.840;8.276;2022-08-26T12:46:10;33.10;;;28.20;;
9948;SDS011;5013;51.840;8.276;2022-08-26T12:48:39;32.20;;;27.58;;
9948;SDS011;5013;51.840;8.276;2022-08-26T12:51:13;33.05;;;25.25;;
9948;SDS011;5013;51.840;8.276;2022-08-26T12:53:46;34.38;;;28.08;;
9948;SDS011;5013;51.840;8.276;2022-08-26T12:59:25;35.47;;;30.55;;
9948;SDS011;5013;51.840;8.276;2022-08-26T13:01:51;29.85;;;25.90;;
9948;SDS011;5013;51.840;8.276;2022-08-26T13:04:31;38.42;;;26.83;;
9948;SDS011;5013;51.840;8.276;2022-08-26T13:07:14;34.33;;;26.65;;
9948;SDS011;5013;51.840;8.276;2022-08-26T13:09:48;32.95;;;27.30;;
9948;SDS011;5013;51.840;8.276;2022-08-26T13:12:24;29.60;;;26.00;;
9948;SDS011;5013;51.840;8.276;2022-08-26T13:15:02;29.73;;;26.60;;
9948;SDS011;5013;51.840;8.276;2022-08-26T13:17:29;27.85;;;25.05;;
9948;SDS011;5013;51.840;8.276;2022-08-26T13:19:55;31.17;;;24.83;;
9948;SDS011;5013;51.840;8.276;2022-08-26T13:22:22;28.17;;;21.98;;
9948;SDS011;5013;51.840;8.276;2022-08-26T13:24:50;32.00;;;23.92;;
9948;SDS011;5013;51.840;8.276;2022-08-26T13:27:21;29.88;;;22.10;;
9948;SDS011;5013;51.840;8.276;2022-08-26T13:29:50;29.23;;;24.73;;
9948;SDS011;5013;51.840;8.276;2022-08-26T13:32:16;26.60;;;20.88;;
9948;SDS011;5013;51.840;8.276;2022-08-26T13:34:45;28.13;;;24.67;;
9948;SDS011;5013;51.840;8.276;2022-08-26T13:37:12;29.65;;;23.98;;
9948;SDS011;5013;51.840;8.276;2022-08-26T13:39:38;25.50;;;21.00;;
9948;SDS011;5013;51.840;8.276;2022-08-26T13:42:05;31.65;;;21.90;;
9948;SDS011;5013;51.840;8.276;2022-08-26T13:44:32;32.28;;;21.10;;
9948;SDS011;5013;51.840;8.276;2022-08-26T13:46:58;33.22;;;22.30;;
9948;SDS011;5013;51.840;8.276;2022-08-26T13:49:23;27.40;;;19.65;;
9948;SDS011;5013;51.840;8.276;2022-08-26T13:51:49;29.05;;;21.17;;
9948;SDS011;5013;51.840;8.276;2022-08-26T13:54:14;25.25;;;21.80;;
9948;SDS011;5013;51.840;8.276;2022-08-26T13:56:40;24.88;;;21.00;;
9948;SDS011;5013;51.840;8.276;2022-08-26T13:59:06;30.15;;;20.40;;
9948;SDS011;5013;51.840;8.276;2022-08-26T14:01:32;26.58;;;21.45;;
9948;SDS011;5013;51.840;8.276;2022-08-26T14:03:59;21.52;;;19.25;;
9948;SDS011;5013;51.840;8.276;2022-08-26T14:06:26;27.92;;;20.92;;
9948;SDS011;5013;51.840;8.276;2022-08-26T14:08:52;23.92;;;19.58;;
9948;SDS011;5013;51.840;8.276;2022-08-26T14:11:18;22.50;;;18.70;;
9948;SDS011;5013;51.840;8.276;2022-08-26T14:13:45;19.48;;;16.95;;
9948;SDS011;5013;51.840;8.276;2022-08-26T14:16:20;29.98;;;20.75;;
9948;SDS011;5013;51.840;8.276;2022-08-26T14:18:50;24.35;;;18.35;;
9948;SDS011;5013;51.840;8.276;2022-08-26T14:21:17;25.73;;;18.92;;
9948;SDS011;5013;51.840;8.276;2022-08-26T14:23:42;22.90;;;19.67;;
9948;SDS011;5013;51.840;8.276;2022-08-26T14:26:08;25.67;;;18.20;;
9948;SDS011;5013;51.840;8.276;2022-08-26T14:28:35;23.75;;;17.48;;
9948;SDS011;5013;51.840;8.276;2022-08-26T14:31:02;24.25;;;17.67;;
9948;SDS011;5013;51.840;8.276;2022-08-26T14:33:28;20.85;;;18.10;;
9948;SDS011;5013;51.840;8.276;2022-08-26T14:35:58;22.23;;;19.23;;
9948;SDS011;5013;51.840;8.276;2022-08-26T14:38:43;20.58;;;17.05;;
9948;SDS011;5013;51.840;8.276;2022-08-26T14:41:09;28.75;;;19.05;;
9948;SDS011;5013;51.840;8.276;2022-08-26T14:43:36;26.77;;;18.85;;
9948;SDS011;5013;51.840;8.276;2022-08-26T14:46:09;24.35;;;18.05;;
9948;SDS011;5013;51.840;8.276;2022-08-26T14:48:35;29.10;;;19.65;;
9948;SDS011;5013;51.840;8.276;2022-08-26T14:51:01;24.33;;;18.55;;
9948;SDS011;5013;51.840;8.276;2022-08-26T14:53:29;25.02;;;19.17;;
9948;SDS011;5013;51.840;8.276;2022-08-26T14:56:13;28.13;;;19.67;;
9948;SDS011;5013;51.840;8.276;2022-08-26T14:58:39;32.47;;;20.20;;
9948;SDS011;5013;51.840;8.276;2022-08-26T15:01:04;30.63;;;18.13;;
9948;SDS011;5013;51.840;8.276;2022-08-26T15:03:31;23.73;;;18.55;;
9948;SDS011;5013;51.840;8.276;2022-08-26T15:05:57;24.58;;;16.00;;
9948;SDS011;5013;51.840;8.276;2022-08-26T15:08:23;21.80;;;17.88;;
9948;SDS011;5013;51.840;8.276;2022-08-26T15:10:49;21.30;;;15.73;;
9948;SDS011;5013;51.840;8.276;2022-08-26T15:13:15;22.27;;;16.00;;
9948;SDS011;5013;51.840;8.276;2022-08-26T15:15:40;25.30;;;17.08;;
9948;SDS011;5013;51.840;8.276;2022-08-26T15:18:06;18.88;;;16.00;;
9948;SDS011;5013;51.840;8.276;2022-08-26T15:20:32;21.80;;;15.00;;
9948;SDS011;5013;51.840;8.276;2022-08-26T15:22:57;20.70;;;16.70;;
9948;SDS011;5013;51.840;8.276;2022-08-26T15:25:23;15.77;;;12.98;;
9948;SDS011;5013;51.840;8.276;2022-08-26T15:27:49;14.50;;;12.98;;
9948;SDS011;5013;51.840;8.276;2022-08-26T15:30:14;16.73;;;13.40;;
9948;SDS011;5013;51.840;8.276;2022-08-26T15:32:42;22.83;;;14.18;;
9948;SDS011;5013;51.840;8.276;2022-08-26T15:35:07;17.27;;;12.27;;
9948;SDS011;5013;51.840;8.276;2022-08-26T15:37:33;17.90;;;13.13;;
9948;SDS011;5013;51.840;8.276;2022-08-26T15:39:59;13.05;;;10.57;;
9948;SDS011;5013;51.840;8.276;2022-08-26T15:42:25;16.15;;;9.90;;
9948;SDS011;5013;51.840;8.276;2022-08-26T15:44:51;18.08;;;11.05;;
9948;SDS011;5013;51.840;8.276;2022-08-26T15:47:17;18.75;;;10.43;;
9948;SDS011;5013;51.840;8.276;2022-08-26T15:49:49;13.65;;;9.70;;
9948;SDS011;5013;51.840;8.276;2022-08-26T15:52:15;18.48;;;10.93;;
9948;SDS011;5013;51.840;8.276;2022-08-26T15:54:41;15.75;;;10.68;;
9948;SDS011;5013;51.840;8.276;2022-08-26T15:57:07;13.93;;;8.80;;
9948;SDS011;5013;51.840;8.276;2022-08-26T15:59:32;14.05;;;9.63;;